Time,TemperatureF,DewpointF,PressureIn,WindDirection,WindDirectionDegrees,WindSpeedMPH,WindSpeedGustMPH,Humidity,HourlyPrecipIn,Conditions,Clouds,dailyrainin,SoftwareType,DateUTC
2013-03-04 00:00:00,42.7,36.6,30.19,NNW,340,0.0,0.0,79,0.00,,,0.00,VWS V14.01,2013-03-04 05:00:00,
2013-03-04 00:05:00,42.6,36.6,30.19,NNW,340,0.0,0.0,79,0.00,,,0.00,VWS V14.01,2013-03-04 05:05:00,
2013-03-04 00:10:00,42.5,36.5,30.19,NNW,340,0.0,0.0,79,0.00,,,0.00,VWS V14.01,2013-03-04 05:10:00,
2013-03-04 00:15:00,42.4,36.7,30.19,NNW,340,0.0,0.0,80,0.00,,,0.00,VWS V14.01,2013-03-04 05:15:00,
2013-03-04 00:20:00,42.3,36.5,30.19,NNW,340,0.0,0.0,80,0.00,,,0.00,VWS V14.01,2013-03-04 05:20:00,
2013-03-04 00:25:00,42.1,36.3,30.19,NNW,340,0.0,0.0,80,0.00,,,0.00,VWS V14.01,2013-03-04 05:25:00,
2013-03-04 00:30:00,41.9,36.1,30.19,NNW,340,0.0,0.0,80,0.00,,,0.00,VWS V14.01,2013-03-04 05:30:00,
2013-03-04 00:35:00,41.7,36.1,30.19,NNW,340,0.0,0.0,80,0.00,,,0.00,VWS V14.01,2013-03-04 05:35:00,
2013-03-04 00:40:00,41.6,36.2,30.19,NNW,340,0.0,0.0,81,0.00,,,0.00,VWS V14.01,2013-03-04 05:40:00,
2013-03-04 00:45:00,41.3,36.0,30.19,NNW,340,0.0,0.0,81,0.00,,,0.00,VWS V14.01,2013-03-04 05:45:00,
2013-03-04 00:50:00,41.0,35.9,30.19,NNW,340,0.0,0.0,82,0.00,,,0.00,VWS V14.01,2013-03-04 05:50:00,
2013-03-04 00:55:00,40.7,35.8,30.19,NNW,340,0.0,0.0,82,0.00,,,0.00,VWS V14.01,2013-03-04 05:55:00,
2013-03-04 01:00:00,40.4,35.6,30.19,NNW,340,0.0,0.0,83,0.00,,,0.00,VWS V14.01,2013-03-04 06:00:00,
2013-03-04 01:05:00,40.4,35.7,30.19,NNW,340,0.0,0.0,83,0.00,,,0.00,VWS V14.01,2013-03-04 06:05:00,
2013-03-04 01:10:00,40.2,35.6,30.19,NNW,340,0.0,0.0,83,0.00,,,0.00,VWS V14.01,2013-03-04 06:10:00,
2013-03-04 01:15:00,40.2,35.6,30.19,NNW,340,0.0,0.0,83,0.00,,,0.00,VWS V14.01,2013-03-04 06:15:00,
2013-03-04 01:20:00,40.2,35.7,30.19,NNW,340,0.0,0.0,84,0.00,,,0.00,VWS V14.01,2013-03-04 06:20:00,
2013-03-04 01:25:00,40.0,35.6,30.19,NNW,340,0.0,0.0,84,0.00,,,0.00,VWS V14.01,2013-03-04 06:25:00,
2013-03-04 01:30:00,39.9,35.6,30.19,NNW,340,0.0,0.0,84,0.00,,,0.00,VWS V14.01,2013-03-04 06:30:00,
2013-03-04 01:35:00,39.6,35.3,30.19,NNW,340,0.0,0.0,85,0.00,,,0.00,VWS V14.01,2013-03-04 06:35:00,
2013-03-04 01:40:00,39.4,35.2,30.19,NNW,340,0.0,0.0,85,0.00,,,0.00,VWS V14.01,2013-03-04 06:40:00,
2013-03-04 01:45:00,39.3,35.2,30.19,NNW,340,0.0,0.0,85,0.00,,,0.00,VWS V14.01,2013-03-04 06:45:00,
2013-03-04 01:50:00,39.1,35.2,30.19,NNW,340,0.0,0.0,86,0.00,,,0.00,VWS V14.01,2013-03-04 06:50:00,
2013-03-04 01:55:00,38.9,35.0,30.19,NNW,340,0.0,0.0,86,0.00,,,0.00,VWS V14.01,2013-03-04 06:55:00,
2013-03-04 02:00:00,39.0,35.2,30.19,NNW,340,0.0,0.0,86,0.00,,,0.00,VWS V14.01,2013-03-04 07:00:00,
2013-03-04 02:05:00,38.9,35.2,30.19,NNW,340,0.0,0.0,86,0.00,,,0.00,VWS V14.01,2013-03-04 07:05:00,
2013-03-04 02:10:00,38.8,35.1,30.19,NNW,340,0.0,0.0,86,0.00,,,0.00,VWS V14.01,2013-03-04 07:10:00,
2013-03-04 02:14:00,38.8,35.2,30.20,NNW,340,0.0,0.0,87,0.00,,,0.00,VWS V14.01,2013-03-04 07:14:00,
2013-03-04 02:19:00,38.7,35.1,30.19,NNW,340,0.0,0.0,87,0.00,,,0.00,VWS V14.01,2013-03-04 07:19:00,
2013-03-04 02:24:00,38.8,35.2,30.19,NNW,340,0.0,0.0,87,0.00,,,0.00,VWS V14.01,2013-03-04 07:24:00,
2013-03-04 02:29:00,38.5,35.0,30.18,NNW,340,0.0,0.0,87,0.00,,,0.00,VWS V14.01,2013-03-04 07:29:00,
2013-03-04 02:34:00,38.5,35.0,30.18,NNW,340,0.0,0.0,87,0.00,,,0.00,VWS V14.01,2013-03-04 07:34:00,
2013-03-04 02:39:00,38.2,34.7,30.18,NNW,340,0.0,0.0,87,0.00,,,0.00,VWS V14.01,2013-03-04 07:39:00,
2013-03-04 02:44:00,38.1,34.7,30.18,NNW,340,0.0,0.0,87,0.00,,,0.00,VWS V14.01,2013-03-04 07:44:00,
2013-03-04 02:49:00,38.0,34.6,30.18,NNW,340,0.0,0.0,88,0.00,,,0.00,VWS V14.01,2013-03-04 07:49:00,
2013-03-04 02:54:00,38.2,34.8,30.18,NNW,340,0.0,0.0,87,0.00,,,0.00,VWS V14.01,2013-03-04 07:54:00,
2013-03-04 02:59:00,38.3,34.9,30.18,NNW,340,0.0,0.0,88,0.00,,,0.00,VWS V14.01,2013-03-04 07:59:00,
2013-03-04 03:04:00,38.3,34.9,30.18,NNW,340,0.0,0.0,88,0.00,,,0.00,VWS V14.01,2013-03-04 08:04:00,
2013-03-04 03:09:00,38.1,34.7,30.18,NNW,340,0.0,0.0,88,0.00,,,0.00,VWS V14.01,2013-03-04 08:09:00,
2013-03-04 03:14:00,38.1,34.8,30.18,NNW,340,0.0,0.0,88,0.00,,,0.00,VWS V14.01,2013-03-04 08:14:00,
2013-03-04 03:19:00,37.8,34.5,30.18,NNW,340,0.0,0.0,88,0.00,,,0.00,VWS V14.01,2013-03-04 08:19:00,
2013-03-04 03:24:00,38.0,34.8,30.18,NNW,340,0.0,0.0,88,0.00,,,0.00,VWS V14.01,2013-03-04 08:24:00,
2013-03-04 03:29:00,37.9,34.7,30.18,NNW,340,0.0,0.0,88,0.00,,,0.00,VWS V14.01,2013-03-04 08:29:00,
2013-03-04 03:34:00,38.0,34.7,30.18,NNW,340,0.0,0.0,88,0.00,,,0.00,VWS V14.01,2013-03-04 08:34:00,
2013-03-04 03:39:00,38.0,34.7,30.18,NNW,340,0.0,0.0,88,0.00,,,0.00,VWS V14.01,2013-03-04 08:39:00,
2013-03-04 03:44:00,38.0,34.7,30.18,NNW,340,0.0,0.0,88,0.00,,,0.00,VWS V14.01,2013-03-04 08:44:00,
2013-03-04 03:49:00,37.8,34.5,30.17,NNW,340,0.0,0.0,88,0.00,,,0.00,VWS V14.01,2013-03-04 08:49:00,
2013-03-04 03:54:00,37.9,34.7,30.17,NNW,340,0.0,0.0,88,0.00,,,0.00,VWS V14.01,2013-03-04 08:54:00,
2013-03-04 03:59:00,37.6,34.5,30.17,NNW,340,0.0,0.0,89,0.00,,,0.00,VWS V14.01,2013-03-04 08:59:00,
2013-03-04 04:04:00,37.7,34.7,30.17,NNW,340,0.0,0.0,89,0.00,,,0.00,VWS V14.01,2013-03-04 09:04:00,
2013-03-04 04:09:00,37.8,34.8,30.17,NNW,340,0.0,0.0,89,0.00,,,0.00,VWS V14.01,2013-03-04 09:09:00,
2013-03-04 04:14:00,37.7,34.6,30.18,NNW,340,0.0,0.0,89,0.00,,,0.00,VWS V14.01,2013-03-04 09:14:00,
2013-03-04 04:19:00,37.6,34.5,30.18,NNW,340,0.0,0.0,89,0.00,,,0.00,VWS V14.01,2013-03-04 09:19:00,
2013-03-04 04:24:00,37.5,34.5,30.18,NNW,340,0.0,0.0,89,0.00,,,0.00,VWS V14.01,2013-03-04 09:24:00,
2013-03-04 04:29:00,37.3,34.2,30.18,NNW,340,0.0,0.0,89,0.00,,,0.00,VWS V14.01,2013-03-04 09:29:00,
2013-03-04 04:34:00,37.3,34.3,30.18,NNW,340,0.0,0.0,89,0.00,,,0.00,VWS V14.01,2013-03-04 09:34:00,
2013-03-04 04:39:00,37.2,34.3,30.19,NNW,340,0.0,0.0,89,0.00,,,0.00,VWS V14.01,2013-03-04 09:39:00,
2013-03-04 04:44:00,37.2,34.3,30.19,NNW,340,0.0,0.0,89,0.00,,,0.00,VWS V14.01,2013-03-04 09:44:00,
2013-03-04 04:49:00,37.0,34.2,30.19,NNW,340,0.0,0.0,89,0.00,,,0.00,VWS V14.01,2013-03-04 09:49:00,
2013-03-04 04:54:00,37.1,34.4,30.19,NNW,340,0.0,0.0,90,0.00,,,0.00,VWS V14.01,2013-03-04 09:54:00,
2013-03-04 04:59:00,36.8,34.2,30.19,NNW,340,0.0,0.0,90,0.00,,,0.00,VWS V14.01,2013-03-04 09:59:00,
2013-03-04 05:04:00,36.9,34.3,30.19,NNW,340,0.0,0.0,90,0.00,,,0.00,VWS V14.01,2013-03-04 10:04:00,
2013-03-04 05:09:00,37.0,34.3,30.19,NNW,340,0.0,0.0,90,0.00,,,0.00,VWS V14.01,2013-03-04 10:09:00,
2013-03-04 05:14:00,37.0,34.3,30.19,NNW,340,0.0,0.0,90,0.00,,,0.00,VWS V14.01,2013-03-04 10:14:00,
2013-03-04 05:19:00,36.6,33.9,30.19,NNW,340,0.0,0.0,90,0.00,,,0.00,VWS V14.01,2013-03-04 10:19:00,
2013-03-04 05:24:00,36.7,34.0,30.19,NNW,340,0.0,0.0,90,0.00,,,0.00,VWS V14.01,2013-03-04 10:24:00,
2013-03-04 05:29:00,36.5,33.8,30.19,NNW,340,0.0,0.0,90,0.00,,,0.00,VWS V14.01,2013-03-04 10:29:00,
2013-03-04 05:34:00,36.5,33.9,30.19,NNW,340,0.0,0.0,90,0.00,,,0.00,VWS V14.01,2013-03-04 10:34:00,
2013-03-04 05:39:00,36.3,33.7,30.20,NNW,340,0.0,0.0,90,0.00,,,0.00,VWS V14.01,2013-03-04 10:39:00,
2013-03-04 05:44:00,36.5,33.9,30.20,NNW,340,0.0,0.0,90,0.00,,,0.00,VWS V14.01,2013-03-04 10:44:00,
2013-03-04 05:49:00,36.1,33.5,30.20,NNW,340,0.0,0.0,90,0.00,,,0.00,VWS V14.01,2013-03-04 10:49:00,
2013-03-04 05:54:00,36.4,33.8,30.20,NNW,340,0.0,0.0,90,0.00,,,0.00,VWS V14.01,2013-03-04 10:54:00,
2013-03-04 05:59:00,36.1,33.5,30.20,NNW,340,0.0,0.0,90,0.00,,,0.00,VWS V14.01,2013-03-04 10:59:00,
2013-03-04 06:04:00,36.1,33.5,30.20,NNW,340,0.0,0.0,90,0.00,,,0.00,VWS V14.01,2013-03-04 11:04:00,
2013-03-04 06:09:00,36.0,33.4,30.20,NNW,340,0.0,0.0,90,0.00,,,0.00,VWS V14.01,2013-03-04 11:09:00,
2013-03-04 06:14:00,36.1,33.5,30.21,NNW,340,0.0,0.0,90,0.00,,,0.00,VWS V14.01,2013-03-04 11:14:00,
2013-03-04 06:19:00,36.3,33.7,30.21,NNW,340,0.0,0.0,90,0.00,,,0.00,VWS V14.01,2013-03-04 11:19:00,
2013-03-04 06:24:00,36.1,33.5,30.22,NNW,340,0.0,0.0,90,0.00,,,0.00,VWS V14.01,2013-03-04 11:24:00,
2013-03-04 06:29:00,36.0,33.4,30.22,NNW,340,0.0,0.0,90,0.00,,,0.00,VWS V14.01,2013-03-04 11:29:00,
2013-03-04 06:34:00,36.0,33.4,30.23,NNW,340,0.0,0.0,90,0.00,,,0.00,VWS V14.01,2013-03-04 11:34:00,
2013-03-04 06:39:00,36.0,33.5,30.22,NNW,340,0.0,0.0,90,0.00,,,0.00,VWS V14.01,2013-03-04 11:39:00,
2013-03-04 06:44:00,36.2,33.7,30.22,NNW,340,0.0,0.0,91,0.00,,,0.00,VWS V14.01,2013-03-04 11:44:00,
2013-03-04 06:49:00,36.4,34.0,30.23,NNW,340,0.0,0.0,91,0.00,,,0.00,VWS V14.01,2013-03-04 11:49:00,
2013-03-04 06:54:00,36.0,33.6,30.23,NNW,340,0.0,0.0,91,0.00,,,0.00,VWS V14.01,2013-03-04 11:54:00,
2013-03-04 06:59:00,36.2,33.8,30.23,NNW,340,0.0,0.0,91,0.00,,,0.00,VWS V14.01,2013-03-04 11:59:00,
2013-03-04 07:04:00,36.2,33.8,30.23,NNW,340,0.0,0.0,91,0.00,,,0.00,VWS V14.01,2013-03-04 12:04:00,
2013-03-04 07:09:00,36.5,34.0,30.24,NNW,340,0.0,0.0,91,0.00,,,0.00,VWS V14.01,2013-03-04 12:09:00,
2013-03-04 07:14:00,36.6,34.1,30.24,NNW,340,0.0,0.0,90,0.00,,,0.00,VWS V14.01,2013-03-04 12:14:00,
2013-03-04 07:19:00,37.0,34.4,30.24,NNW,340,0.0,0.0,90,0.00,,,0.00,VWS V14.01,2013-03-04 12:19:00,
2013-03-04 07:24:00,37.4,34.8,30.24,NNW,340,0.0,0.0,90,0.00,,,0.00,VWS V14.01,2013-03-04 12:24:00,
2013-03-04 07:29:00,37.6,34.8,30.24,NNW,340,0.0,0.0,90,0.00,,,0.00,VWS V14.01,2013-03-04 12:29:00,
2013-03-04 07:34:00,37.7,34.7,30.24,NNW,340,0.0,0.0,89,0.00,,,0.00,VWS V14.01,2013-03-04 12:34:00,
2013-03-04 07:39:00,38.1,34.8,30.24,NNW,340,0.0,0.0,88,0.00,,,0.00,VWS V14.01,2013-03-04 12:39:00,
2013-03-04 07:44:00,38.1,34.2,30.24,NNW,340,0.0,0.0,86,0.00,,,0.00,VWS V14.01,2013-03-04 12:44:00,
2013-03-04 07:49:00,38.5,34.2,30.24,NNW,340,0.0,0.0,84,0.00,,,0.00,VWS V14.01,2013-03-04 12:49:00,
2013-03-04 07:54:00,38.7,34.2,30.25,NNW,340,0.0,0.0,84,0.00,,,0.00,VWS V14.01,2013-03-04 12:54:00,
2013-03-04 07:59:00,39.3,34.0,30.25,NNW,340,0.0,0.0,81,0.00,,,0.00,VWS V14.01,2013-03-04 12:59:00,
2013-03-04 08:04:00,39.8,33.9,30.26,NNW,340,0.0,0.0,79,0.00,,,0.00,VWS V14.01,2013-03-04 13:04:00,
2013-03-04 08:09:00,40.6,34.0,30.26,WNW,302,0.0,4.7,77,0.00,,,0.00,VWS V14.01,2013-03-04 13:09:00,
2013-03-04 08:14:00,41.0,33.9,30.26,NW,307,0.0,0.0,76,0.00,,,0.00,VWS V14.01,2013-03-04 13:14:00,
2013-03-04 08:19:00,41.6,34.3,30.26,NW,311,0.0,5.2,75,0.00,,,0.00,VWS V14.01,2013-03-04 13:19:00,
2013-03-04 08:24:00,42.1,34.8,30.26,NNW,329,0.0,3.4,75,0.00,,,0.00,VWS V14.01,2013-03-04 13:24:00,
2013-03-04 08:29:00,42.4,35.2,30.26,NNW,329,0.0,0.0,75,0.00,,,0.00,VWS V14.01,2013-03-04 13:29:00,
2013-03-04 08:34:00,42.9,35.2,30.26,NW,318,0.0,0.0,74,0.00,,,0.00,VWS V14.01,2013-03-04 13:34:00,
2013-03-04 08:39:00,43.6,35.9,30.27,West,271,0.0,0.0,74,0.00,,,0.00,VWS V14.01,2013-03-04 13:39:00,
2013-03-04 08:44:00,44.2,35.4,30.27,West,271,0.0,0.0,71,0.00,,,0.00,VWS V14.01,2013-03-04 13:44:00,
2013-03-04 08:49:00,44.6,36.1,30.27,West,271,0.0,0.0,72,0.00,,,0.00,VWS V14.01,2013-03-04 13:49:00,
2013-03-04 08:54:00,45.2,35.4,30.28,North,359,0.0,0.0,68,0.00,,,0.00,VWS V14.01,2013-03-04 13:54:00,
2013-03-04 08:59:00,45.8,34.8,30.28,NE,39,0.0,5.2,65,0.00,,,0.00,VWS V14.01,2013-03-04 13:59:00,
2013-03-04 09:04:00,46.2,34.9,30.27,NNW,338,0.0,5.0,64,0.00,,,0.00,VWS V14.01,2013-03-04 14:04:00,
2013-03-04 09:09:00,46.3,34.8,30.27,North,359,0.0,1.8,64,0.00,,,0.00,VWS V14.01,2013-03-04 14:09:00,
2013-03-04 09:14:00,46.8,34.8,30.27,NW,314,0.0,3.0,63,0.00,,,0.00,VWS V14.01,2013-03-04 14:14:00,
2013-03-04 09:19:00,47.3,34.0,30.27,North,359,0.0,1.7,60,0.00,,,0.00,VWS V14.01,2013-03-04 14:19:00,
2013-03-04 09:24:00,47.6,33.2,30.27,North,10,3.4,4.5,57,0.00,,,0.00,VWS V14.01,2013-03-04 14:24:00,
2013-03-04 09:29:00,48.3,33.2,30.27,ENE,66,3.4,5.0,56,0.00,,,0.00,VWS V14.01,2013-03-04 14:29:00,
2013-03-04 09:34:00,48.9,33.5,30.27,NNE,24,0.0,3.4,55,0.00,,,0.00,VWS V14.01,2013-03-04 14:34:00,
2013-03-04 09:39:00,49.4,34.3,30.27,NW,321,4.3,5.6,56,0.00,,,0.00,VWS V14.01,2013-03-04 14:39:00,
2013-03-04 09:43:00,50.0,33.2,30.27,NNW,328,0.0,7.0,52,0.00,,,0.00,VWS V14.01,2013-03-04 14:43:00,
2013-03-04 09:48:00,50.6,33.6,30.27,NNW,333,0.0,10.7,52,0.00,,,0.00,VWS V14.01,2013-03-04 14:48:00,
2013-03-04 09:53:00,51.1,33.8,30.27,NE,41,0.0,0.0,51,0.00,,,0.00,VWS V14.01,2013-03-04 14:53:00,
2013-03-04 09:58:00,51.6,33.4,30.27,WSW,239,0.0,0.0,50,0.00,,,0.00,VWS V14.01,2013-03-04 14:58:00,
2013-03-04 10:03:00,52.0,34.0,30.27,NNW,347,0.0,5.9,50,0.00,,,0.00,VWS V14.01,2013-03-04 15:03:00,
2013-03-04 10:08:00,52.6,34.0,30.27,NNW,335,3.2,4.6,49,0.00,,,0.00,VWS V14.01,2013-03-04 15:08:00,
2013-03-04 10:13:00,52.9,33.7,30.27,NE,34,3.2,7.8,48,0.00,,,0.00,VWS V14.01,2013-03-04 15:13:00,
2013-03-04 10:18:00,53.0,34.0,30.26,WNW,288,8.0,9.3,48,0.00,,,0.00,VWS V14.01,2013-03-04 15:18:00,
2013-03-04 10:23:00,53.3,33.7,30.26,NNW,336,0.0,0.0,47,0.00,,,0.00,VWS V14.01,2013-03-04 15:23:00,
2013-03-04 10:28:00,53.6,34.5,30.26,NNW,336,0.0,0.0,48,0.00,,,0.00,VWS V14.01,2013-03-04 15:28:00,
2013-03-04 10:33:00,54.2,33.6,30.26,NW,305,0.0,3.4,45,0.00,,,0.00,VWS V14.01,2013-03-04 15:33:00,
2013-03-04 10:38:00,54.5,32.7,30.26,North,352,0.0,1.7,43,0.00,,,0.00,VWS V14.01,2013-03-04 15:38:00,
2013-03-04 10:43:00,54.9,34.0,30.25,NW,311,0.0,0.0,45,0.00,,,0.00,VWS V14.01,2013-03-04 15:43:00,
2013-03-04 10:48:00,55.1,34.3,30.26,NNW,338,0.0,3.5,45,0.00,,,0.00,VWS V14.01,2013-03-04 15:48:00,
2013-03-04 10:53:00,55.4,34.1,30.25,NNW,338,0.0,0.0,44,0.00,,,0.00,VWS V14.01,2013-03-04 15:53:00,
2013-03-04 10:58:00,55.8,34.4,30.26,NNW,338,0.0,0.0,44,0.00,,,0.00,VWS V14.01,2013-03-04 15:58:00,
2013-03-04 11:03:00,56.2,33.9,30.26,NNW,335,0.0,5.2,43,0.00,,,0.00,VWS V14.01,2013-03-04 16:03:00,
2013-03-04 11:08:00,56.4,34.2,30.25,WSW,243,0.0,6.2,43,0.00,,,0.00,VWS V14.01,2013-03-04 16:08:00,
2013-03-04 11:13:00,57.0,34.0,30.25,NW,323,0.0,5.3,42,0.00,,,0.00,VWS V14.01,2013-03-04 16:13:00,
2013-03-04 11:18:00,57.0,33.0,30.25,NW,323,0.0,0.0,40,0.00,,,0.00,VWS V14.01,2013-03-04 16:18:00,
2013-03-04 11:23:00,57.1,33.8,30.25,NW,323,0.0,0.0,41,0.00,,,0.00,VWS V14.01,2013-03-04 16:23:00,
2013-03-04 11:28:00,57.4,33.8,30.25,WNW,301,4.7,6.4,41,0.00,,,0.00,VWS V14.01,2013-03-04 16:28:00,
2013-03-04 11:33:00,57.7,31.3,30.25,West,276,0.0,0.0,36,0.00,,,0.00,VWS V14.01,2013-03-04 16:33:00,
2013-03-04 11:38:00,57.9,31.6,30.25,NW,309,0.0,2.3,37,0.00,,,0.00,VWS V14.01,2013-03-04 16:38:00,
2013-03-04 11:43:00,58.4,33.8,30.25,NW,309,0.0,0.0,39,0.00,,,0.00,VWS V14.01,2013-03-04 16:43:00,
2013-03-04 11:48:00,58.7,30.7,30.25,WNW,294,0.0,0.0,34,0.00,,,0.00,VWS V14.01,2013-03-04 16:48:00,
2013-03-04 11:53:00,58.7,33.2,30.25,NW,307,5.0,7.5,38,0.00,,,0.00,VWS V14.01,2013-03-04 16:53:00,
2013-03-04 11:58:00,59.1,33.4,30.24,North,359,3.0,7.5,38,0.00,,,0.00,VWS V14.01,2013-03-04 16:58:00,
2013-03-04 12:03:00,59.1,32.4,30.23,NNW,338,0.0,3.0,36,0.00,,,0.00,VWS V14.01,2013-03-04 17:03:00,
2013-03-04 12:08:00,59.3,33.2,30.23,NNW,338,0.0,0.0,37,0.00,,,0.00,VWS V14.01,2013-03-04 17:08:00,
2013-03-04 12:13:00,59.4,33.5,30.23,NNW,335,0.0,4.7,38,0.00,,,0.00,VWS V14.01,2013-03-04 17:13:00,
2013-03-04 12:18:00,59.5,33.2,30.23,NNW,335,0.0,0.0,37,0.00,,,0.00,VWS V14.01,2013-03-04 17:18:00,
2013-03-04 12:23:00,59.7,33.3,30.22,NNW,335,0.0,0.0,37,0.00,,,0.00,VWS V14.01,2013-03-04 17:23:00,
2013-03-04 12:28:00,59.7,32.2,30.22,NW,315,0.0,1.6,35,0.00,,,0.00,VWS V14.01,2013-03-04 17:28:00,
2013-03-04 12:33:00,60.0,32.4,30.21,NW,315,0.0,0.0,35,0.00,,,0.00,VWS V14.01,2013-03-04 17:33:00,
2013-03-04 12:38:00,60.5,32.6,30.21,NW,315,0.0,0.0,35,0.00,,,0.00,VWS V14.01,2013-03-04 17:38:00,
2013-03-04 12:43:00,60.8,30.9,30.21,NW,315,0.0,0.0,32,0.00,,,0.00,VWS V14.01,2013-03-04 17:43:00,
2013-03-04 12:48:00,61.2,30.4,30.20,NNW,332,0.0,0.0,31,0.00,,,0.00,VWS V14.01,2013-03-04 17:48:00,
2013-03-04 12:53:00,61.6,31.3,30.20,NNW,332,0.0,0.0,32,0.00,,,0.00,VWS V14.01,2013-03-04 17:53:00,
2013-03-04 12:58:00,61.7,33.2,30.20,NNW,332,0.0,0.0,34,0.00,,,0.00,VWS V14.01,2013-03-04 17:58:00,
2013-03-04 13:03:00,61.6,29.2,30.20,NE,35,0.0,2.6,29,0.00,,,0.00,VWS V14.01,2013-03-04 18:03:00,
2013-03-04 13:08:00,61.4,31.4,30.20,NNW,339,6.6,6.9,32,0.00,,,0.00,VWS V14.01,2013-03-04 18:08:00,
2013-03-04 13:13:00,62.1,30.5,30.19,West,269,0.0,0.0,30,0.00,,,0.00,VWS V14.01,2013-03-04 18:13:00,
2013-03-04 13:18:00,62.0,31.9,30.19,West,269,0.0,0.0,32,0.00,,,0.00,VWS V14.01,2013-03-04 18:18:00,
2013-03-04 13:23:00,62.3,31.5,30.19,West,269,0.0,0.0,31,0.00,,,0.00,VWS V14.01,2013-03-04 18:23:00,
2013-03-04 13:28:00,62.2,32.6,30.19,West,269,0.0,0.0,33,0.00,,,0.00,VWS V14.01,2013-03-04 18:28:00,
2013-03-04 13:29:00,62.3,31.3,30.19,West,269,0.0,0.0,31,0.00,,,0.00,VWS V14.01,2013-03-04 18:29:00,
2013-03-04 13:34:00,62.8,30.3,30.19,West,269,0.0,0.0,29,0.00,,,0.00,VWS V14.01,2013-03-04 18:34:00,
2013-03-04 13:39:00,62.8,32.2,30.19,West,269,0.0,0.0,32,0.00,,,0.00,VWS V14.01,2013-03-04 18:39:00,
2013-03-04 13:44:00,63.4,33.1,30.18,West,269,0.0,0.0,32,0.00,,,0.00,VWS V14.01,2013-03-04 18:44:00,
2013-03-04 13:49:00,63.4,31.7,30.18,West,269,0.0,0.0,30,0.00,,,0.00,VWS V14.01,2013-03-04 18:49:00,
2013-03-04 13:54:00,64.0,32.2,30.18,NNE,21,0.0,4.3,30,0.00,,,0.00,VWS V14.01,2013-03-04 18:54:00,
2013-03-04 13:59:00,63.7,30.5,30.17,ENE,59,0.0,4.8,28,0.00,,,0.00,VWS V14.01,2013-03-04 18:59:00,
2013-03-04 14:04:00,63.6,31.5,30.17,ENE,59,0.0,0.0,30,0.00,,,0.00,VWS V14.01,2013-03-04 19:04:00,
2013-03-04 14:09:00,63.3,31.0,30.17,ENE,59,0.0,0.0,30,0.00,,,0.00,VWS V14.01,2013-03-04 19:09:00,
2013-03-04 14:14:00,63.4,29.9,30.16,ENE,59,0.0,0.0,28,0.00,,,0.00,VWS V14.01,2013-03-04 19:14:00,
2013-03-04 14:19:00,63.4,31.4,30.16,ENE,59,3.5,3.5,30,0.00,,,0.00,VWS V14.01,2013-03-04 19:19:00,
2013-03-04 14:24:00,63.5,31.2,30.16,NE,53,0.0,0.0,30,0.00,,,0.00,VWS V14.01,2013-03-04 19:24:00,
2013-03-04 14:29:00,64.1,31.1,30.16,NNE,30,0.0,4.5,29,0.00,,,0.00,VWS V14.01,2013-03-04 19:29:00,
2013-03-04 14:34:00,64.1,33.5,30.16,WNW,290,0.0,4.2,32,0.00,,,0.00,VWS V14.01,2013-03-04 19:34:00,
2013-03-04 14:39:00,64.4,32.0,30.15,WNW,290,0.0,0.0,30,0.00,,,0.00,VWS V14.01,2013-03-04 19:39:00,
2013-03-04 14:44:00,64.4,32.7,30.16,North,353,0.0,0.0,30,0.00,,,0.00,VWS V14.01,2013-03-04 19:44:00,
2013-03-04 14:49:00,64.1,32.1,30.16,North,353,0.0,0.0,30,0.00,,,0.00,VWS V14.01,2013-03-04 19:49:00,
2013-03-04 14:54:00,64.6,32.1,30.15,North,353,0.0,0.0,30,0.00,,,0.00,VWS V14.01,2013-03-04 19:54:00,
2013-03-04 14:59:00,64.8,33.6,30.15,North,353,0.0,0.0,31,0.00,,,0.00,VWS V14.01,2013-03-04 19:59:00,
2013-03-04 15:04:00,64.8,32.2,30.15,North,353,0.0,0.0,29,0.00,,,0.00,VWS V14.01,2013-03-04 20:04:00,
2013-03-04 15:09:00,64.6,33.2,30.15,North,353,0.0,0.0,31,0.00,,,0.00,VWS V14.01,2013-03-04 20:09:00,
2013-03-04 15:14:00,65.1,34.8,30.15,North,353,0.0,0.0,32,0.00,,,0.00,VWS V14.01,2013-03-04 20:14:00,
2013-03-04 15:19:00,66.4,35.4,30.15,North,353,0.0,0.0,32,0.00,,,0.00,VWS V14.01,2013-03-04 20:19:00,
2013-03-04 15:24:00,66.9,34.6,30.15,North,353,0.0,0.0,30,0.00,,,0.00,VWS V14.01,2013-03-04 20:24:00,
2013-03-04 15:29:00,66.7,32.9,30.15,North,353,0.0,0.0,28,0.00,,,0.00,VWS V14.01,2013-03-04 20:29:00,
2013-03-04 15:34:00,65.7,32.8,30.14,North,353,0.0,0.0,29,0.00,,,0.00,VWS V14.01,2013-03-04 20:34:00,
2013-03-04 15:39:00,66.0,35.2,30.14,North,353,0.0,0.0,32,0.00,,,0.00,VWS V14.01,2013-03-04 20:39:00,
2013-03-04 15:44:00,66.6,34.3,30.14,North,353,0.0,0.0,30,0.00,,,0.00,VWS V14.01,2013-03-04 20:44:00,
2013-03-04 15:49:00,66.3,32.2,30.14,North,353,0.0,0.0,28,0.00,,,0.00,VWS V14.01,2013-03-04 20:49:00,
2013-03-04 15:54:00,66.0,33.0,30.14,North,353,0.0,0.0,29,0.00,,,0.00,VWS V14.01,2013-03-04 20:54:00,
2013-03-04 15:59:00,66.1,34.1,30.14,North,353,0.0,0.0,30,0.00,,,0.00,VWS V14.01,2013-03-04 20:59:00,
2013-03-04 16:04:00,66.2,33.9,30.14,North,353,0.0,0.0,30,0.00,,,0.00,VWS V14.01,2013-03-04 21:04:00,
2013-03-04 16:09:00,66.7,34.8,30.14,North,353,0.0,0.0,31,0.00,,,0.00,VWS V14.01,2013-03-04 21:09:00,
2013-03-04 16:14:00,67.7,36.2,30.14,North,353,0.0,0.0,31,0.00,,,0.00,VWS V14.01,2013-03-04 21:14:00,
2013-03-04 16:19:00,68.2,35.6,30.14,North,353,0.0,0.0,30,0.00,,,0.00,VWS V14.01,2013-03-04 21:19:00,
2013-03-04 16:24:00,68.1,33.6,30.14,North,353,0.0,0.0,28,0.00,,,0.00,VWS V14.01,2013-03-04 21:24:00,
2013-03-04 16:29:00,67.7,35.8,30.14,North,353,0.0,0.0,31,0.00,,,0.00,VWS V14.01,2013-03-04 21:29:00,
2013-03-04 16:34:00,67.4,34.9,30.13,North,353,0.0,0.0,30,0.00,,,0.00,VWS V14.01,2013-03-04 21:34:00,
2013-03-04 16:39:00,67.1,35.5,30.13,North,353,0.0,0.0,31,0.00,,,0.00,VWS V14.01,2013-03-04 21:39:00,
2013-03-04 16:44:00,66.3,34.3,30.13,North,353,0.0,0.0,30,0.00,,,0.00,VWS V14.01,2013-03-04 21:44:00,
2013-03-04 16:49:00,66.1,34.2,30.13,North,353,0.0,0.0,30,0.00,,,0.00,VWS V14.01,2013-03-04 21:49:00,
2013-03-04 16:54:00,65.6,35.6,30.14,North,353,0.0,0.0,33,0.00,,,0.00,VWS V14.01,2013-03-04 21:54:00,
2013-03-04 16:59:00,65.4,34.2,30.14,North,353,0.0,0.0,31,0.00,,,0.00,VWS V14.01,2013-03-04 21:59:00,
2013-03-04 17:04:00,65.1,34.5,30.14,North,353,0.0,0.0,32,0.00,,,0.00,VWS V14.01,2013-03-04 22:04:00,
2013-03-04 17:09:00,65.1,35.5,30.14,North,353,0.0,0.0,33,0.00,,,0.00,VWS V14.01,2013-03-04 22:09:00,
2013-03-04 17:14:00,65.1,34.9,30.14,North,353,0.0,0.0,32,0.00,,,0.00,VWS V14.01,2013-03-04 22:14:00,
2013-03-04 17:19:00,64.8,34.6,30.14,North,353,0.0,0.0,32,0.00,,,0.00,VWS V14.01,2013-03-04 22:19:00,
2013-03-04 17:24:00,64.4,34.6,30.15,North,353,0.0,0.0,33,0.00,,,0.00,VWS V14.01,2013-03-04 22:24:00,
2013-03-04 17:29:00,64.7,35.7,30.15,North,353,0.0,0.0,34,0.00,,,0.00,VWS V14.01,2013-03-04 22:29:00,
2013-03-04 17:34:00,64.9,36.1,30.15,North,353,0.0,0.0,34,0.00,,,0.00,VWS V14.01,2013-03-04 22:34:00,
2013-03-04 17:39:00,64.8,35.8,30.15,North,353,0.0,0.0,34,0.00,,,0.00,VWS V14.01,2013-03-04 22:39:00,
2013-03-04 17:44:00,64.4,35.6,30.15,North,353,0.0,0.0,34,0.00,,,0.00,VWS V14.01,2013-03-04 22:44:00,
2013-03-04 17:49:00,64.0,35.8,30.15,North,353,0.0,0.0,35,0.00,,,0.00,VWS V14.01,2013-03-04 22:49:00,
2013-03-04 17:54:00,64.0,35.2,30.15,North,353,0.0,0.0,34,0.00,,,0.00,VWS V14.01,2013-03-04 22:54:00,
2013-03-04 17:59:00,63.5,35.1,30.15,North,353,0.0,0.0,35,0.00,,,0.00,VWS V14.01,2013-03-04 22:59:00,
2013-03-04 18:04:00,63.4,35.9,30.15,North,353,0.0,0.0,36,0.00,,,0.00,VWS V14.01,2013-03-04 23:04:00,
2013-03-04 18:09:00,63.4,36.4,30.15,North,353,0.0,0.0,37,0.00,,,0.00,VWS V14.01,2013-03-04 23:09:00,
2013-03-04 18:14:00,62.7,36.3,30.15,North,353,0.0,0.0,37,0.00,,,0.00,VWS V14.01,2013-03-04 23:14:00,
2013-03-04 18:19:00,62.4,36.8,30.15,North,353,0.0,0.0,38,0.00,,,0.00,VWS V14.01,2013-03-04 23:19:00,
2013-03-04 18:24:00,61.9,37.2,30.15,North,353,0.0,0.0,40,0.00,,,0.00,VWS V14.01,2013-03-04 23:24:00,
2013-03-04 18:29:00,62.0,37.4,30.16,North,353,0.0,0.0,40,0.00,,,0.00,VWS V14.01,2013-03-04 23:29:00,
2013-03-04 18:34:00,61.7,37.6,30.16,North,353,0.0,0.0,41,0.00,,,0.00,VWS V14.01,2013-03-04 23:34:00,
2013-03-04 18:39:00,61.0,37.9,30.16,North,353,0.0,0.0,42,0.00,,,0.00,VWS V14.01,2013-03-04 23:39:00,
2013-03-04 18:44:00,60.7,37.8,30.16,North,353,0.0,0.0,42,0.00,,,0.00,VWS V14.01,2013-03-04 23:44:00,
2013-03-04 18:49:00,60.5,37.8,30.16,North,353,0.0,0.0,43,0.00,,,0.00,VWS V14.01,2013-03-04 23:49:00,
2013-03-04 18:54:00,60.2,38.9,30.16,North,353,0.0,0.0,45,0.00,,,0.00,VWS V14.01,2013-03-04 23:54:00,
2013-03-04 18:59:00,59.7,39.6,30.16,North,353,0.0,0.0,47,0.00,,,0.00,VWS V14.01,2013-03-04 23:59:00,
2013-03-04 19:04:00,59.5,40.5,30.16,North,353,0.0,0.0,49,0.00,,,0.00,VWS V14.01,2013-03-05 00:04:00,
2013-03-04 19:09:00,59.3,40.4,30.16,North,353,0.0,0.0,50,0.00,,,0.00,VWS V14.01,2013-03-05 00:09:00,
2013-03-04 19:14:00,59.0,40.1,30.16,North,353,0.0,0.0,49,0.00,,,0.00,VWS V14.01,2013-03-05 00:14:00,
2013-03-04 19:19:00,58.8,40.2,30.17,North,353,0.0,0.0,50,0.00,,,0.00,VWS V14.01,2013-03-05 00:19:00,
2013-03-04 19:24:00,57.6,39.9,30.17,North,353,0.0,0.0,52,0.00,,,0.00,VWS V14.01,2013-03-05 00:24:00,
2013-03-04 19:29:00,57.0,41.0,30.18,North,353,0.0,0.0,55,0.00,,,0.00,VWS V14.01,2013-03-05 00:29:00,
2013-03-04 19:34:00,56.8,41.6,30.18,North,353,0.0,0.0,57,0.00,,,0.00,VWS V14.01,2013-03-05 00:34:00,
2013-03-04 19:39:00,56.8,41.7,30.18,North,353,0.0,0.0,57,0.00,,,0.00,VWS V14.01,2013-03-05 00:39:00,
2013-03-04 19:44:00,57.0,41.8,30.18,North,353,0.0,0.0,57,0.00,,,0.00,VWS V14.01,2013-03-05 00:44:00,
2013-03-04 19:49:00,57.1,42.3,30.18,North,353,0.0,0.0,58,0.00,,,0.00,VWS V14.01,2013-03-05 00:49:00,
2013-03-04 19:54:00,57.1,42.7,30.18,North,353,0.0,0.0,58,0.00,,,0.00,VWS V14.01,2013-03-05 00:54:00,
2013-03-04 19:59:00,57.0,42.7,30.18,North,353,0.0,0.0,59,0.00,,,0.00,VWS V14.01,2013-03-05 00:59:00,
2013-03-04 20:04:00,56.8,42.5,30.19,North,353,0.0,0.0,59,0.00,,,0.00,VWS V14.01,2013-03-05 01:04:00,
2013-03-04 20:09:00,56.8,42.9,30.19,North,353,0.0,0.0,60,0.00,,,0.00,VWS V14.01,2013-03-05 01:09:00,
2013-03-04 20:14:00,56.5,43.1,30.19,North,353,0.0,0.0,61,0.00,,,0.00,VWS V14.01,2013-03-05 01:14:00,
2013-03-04 20:19:00,56.2,43.0,30.19,North,353,0.0,0.0,61,0.00,,,0.00,VWS V14.01,2013-03-05 01:19:00,
2013-03-04 20:24:00,56.0,43.0,30.19,North,353,0.0,0.0,62,0.00,,,0.00,VWS V14.01,2013-03-05 01:24:00,
2013-03-04 20:29:00,55.8,43.0,30.19,North,353,0.0,0.0,62,0.00,,,0.00,VWS V14.01,2013-03-05 01:29:00,
2013-03-04 20:34:00,55.6,42.9,30.19,North,353,0.0,0.0,62,0.00,,,0.00,VWS V14.01,2013-03-05 01:34:00,
2013-03-04 20:39:00,55.5,43.1,30.19,North,353,0.0,0.0,63,0.00,,,0.00,VWS V14.01,2013-03-05 01:39:00,
2013-03-04 20:44:00,55.2,43.0,30.19,North,353,0.0,0.0,63,0.00,,,0.00,VWS V14.01,2013-03-05 01:44:00,
2013-03-04 20:49:00,55.1,43.2,30.19,North,353,0.0,0.0,64,0.00,,,0.00,VWS V14.01,2013-03-05 01:49:00,
2013-03-04 20:54:00,54.8,43.2,30.19,North,353,0.0,0.0,65,0.00,,,0.00,VWS V14.01,2013-03-05 01:54:00,
2013-03-04 20:59:00,54.7,43.1,30.19,North,353,0.0,0.0,65,0.00,,,0.00,VWS V14.01,2013-03-05 01:59:00,
2013-03-04 21:04:00,54.6,43.3,30.19,North,353,0.0,0.0,66,0.00,,,0.00,VWS V14.01,2013-03-05 02:04:00,
2013-03-04 21:09:00,54.4,43.3,30.19,North,353,0.0,0.0,66,0.00,,,0.00,VWS V14.01,2013-03-05 02:09:00,
2013-03-04 21:14:00,54.2,43.1,30.19,North,353,0.0,0.0,66,0.00,,,0.00,VWS V14.01,2013-03-05 02:14:00,
2013-03-04 21:19:00,54.0,43.2,30.20,North,353,0.0,0.0,67,0.00,,,0.00,VWS V14.01,2013-03-05 02:19:00,
2013-03-04 21:24:00,53.8,43.5,30.20,North,353,0.0,0.0,68,0.00,,,0.00,VWS V14.01,2013-03-05 02:24:00,
2013-03-04 21:29:00,53.6,43.3,30.19,North,353,0.0,0.0,68,0.00,,,0.00,VWS V14.01,2013-03-05 02:29:00,
2013-03-04 21:34:00,53.3,43.3,30.20,North,353,0.0,0.0,69,0.00,,,0.00,VWS V14.01,2013-03-05 02:34:00,
2013-03-04 21:39:00,53.2,43.3,30.19,North,353,0.0,0.0,69,0.00,,,0.00,VWS V14.01,2013-03-05 02:39:00,
2013-03-04 21:44:00,53.1,43.1,30.19,North,353,0.0,0.0,69,0.00,,,0.00,VWS V14.01,2013-03-05 02:44:00,
2013-03-04 21:49:00,53.0,43.1,30.19,North,353,0.0,0.0,69,0.00,,,0.00,VWS V14.01,2013-03-05 02:49:00,
2013-03-04 21:54:00,52.9,43.3,30.19,North,353,0.0,0.0,70,0.00,,,0.00,VWS V14.01,2013-03-05 02:54:00,
2013-03-04 21:59:00,52.6,43.1,30.19,North,353,0.0,0.0,70,0.00,,,0.00,VWS V14.01,2013-03-05 02:59:00,
2013-03-04 22:04:00,52.4,43.1,30.19,North,353,0.0,0.0,71,0.00,,,0.00,VWS V14.01,2013-03-05 03:04:00,
2013-03-04 22:09:00,52.3,43.1,30.19,North,353,0.0,0.0,71,0.00,,,0.00,VWS V14.01,2013-03-05 03:09:00,
2013-03-04 22:14:00,52.1,43.1,30.19,North,353,0.0,0.0,71,0.00,,,0.00,VWS V14.01,2013-03-05 03:14:00,
2013-03-04 22:19:00,52.0,43.1,30.19,North,353,0.0,0.0,72,0.00,,,0.00,VWS V14.01,2013-03-05 03:19:00,
2013-03-04 22:24:00,51.9,43.0,30.19,North,353,0.0,0.0,72,0.00,,,0.00,VWS V14.01,2013-03-05 03:24:00,
2013-03-04 22:29:00,51.9,43.0,30.19,North,353,0.0,0.0,72,0.00,,,0.00,VWS V14.01,2013-03-05 03:29:00,
2013-03-04 22:34:00,51.7,43.0,30.19,North,353,0.0,0.0,72,0.00,,,0.00,VWS V14.01,2013-03-05 03:34:00,
2013-03-04 22:39:00,51.6,43.0,30.19,North,353,0.0,0.0,72,0.00,,,0.00,VWS V14.01,2013-03-05 03:39:00,
2013-03-04 22:44:00,51.5,43.0,30.19,North,353,0.0,0.0,72,0.00,,,0.00,VWS V14.01,2013-03-05 03:44:00,
2013-03-04 22:49:00,51.4,42.9,30.19,North,353,0.0,0.0,73,0.00,,,0.00,VWS V14.01,2013-03-05 03:49:00,
2013-03-04 22:54:00,51.2,42.9,30.19,North,353,0.0,0.0,73,0.00,,,0.00,VWS V14.01,2013-03-05 03:54:00,
2013-03-04 22:59:00,51.0,42.7,30.19,North,353,0.0,0.0,73,0.00,,,0.00,VWS V14.01,2013-03-05 03:59:00,
2013-03-04 23:04:00,51.0,42.8,30.19,North,353,0.0,0.0,73,0.00,,,0.00,VWS V14.01,2013-03-05 04:04:00,
2013-03-04 23:09:00,51.0,42.8,30.19,North,353,0.0,0.0,73,0.00,,,0.00,VWS V14.01,2013-03-05 04:09:00,
2013-03-04 23:13:00,50.9,42.9,30.19,North,353,0.0,0.0,74,0.00,,,0.00,VWS V14.01,2013-03-05 04:13:00,
2013-03-04 23:18:00,50.9,42.8,30.19,North,353,0.0,0.0,74,0.00,,,0.00,VWS V14.01,2013-03-05 04:18:00,
2013-03-04 23:23:00,50.7,42.6,30.19,North,353,0.0,0.0,74,0.00,,,0.00,VWS V14.01,2013-03-05 04:23:00,
2013-03-04 23:28:00,50.6,42.7,30.19,North,353,0.0,0.0,74,0.00,,,0.00,VWS V14.01,2013-03-05 04:28:00,
2013-03-04 23:33:00,50.4,42.9,30.19,North,353,0.0,0.0,75,0.00,,,0.00,VWS V14.01,2013-03-05 04:33:00,
2013-03-04 23:38:00,50.3,43.0,30.18,North,353,0.0,0.0,76,0.00,,,0.00,VWS V14.01,2013-03-05 04:38:00,
2013-03-04 23:43:00,50.1,42.9,30.18,North,353,0.0,0.0,76,0.00,,,0.00,VWS V14.01,2013-03-05 04:43:00,
2013-03-04 23:48:00,50.0,43.2,30.18,North,353,0.0,0.0,77,0.00,,,0.00,VWS V14.01,2013-03-05 04:48:00,
2013-03-04 23:53:00,49.8,43.2,30.18,North,353,0.0,0.0,78,0.00,,,0.00,VWS V14.01,2013-03-05 04:53:00,
2013-03-04 23:58:00,49.6,43.0,30.18,North,353,0.0,0.0,78,0.00,,,0.00,VWS V14.01,2013-03-05 04:58:00,